Coral Pearl — PDDD — position and weather

sailwx.info

Track history (hours):
 
Tides and Currents Weather Stations Pressure Air Temp Water Temp Dewpoint Dewpoint Depression Visibility Wind Speed Wind Dir Waves Ship Positions

Coral Pearl

Last reported at 2017-Nov-16 12:43 UTC. Time now 2017-Nov-19 07:07 UTC.
Position N 37°45' W 000°21'.

Length 115 m; draft 7.5 m.

Type: Ship. MMSI: 244870430.

Date/timePositionNaut miles runAvg speedWind from/ knotsBaromVisibWave heightAir tempDewpointWater temp
2017-Nov-16 12:43N 37°45' W 000°21'211.5
2017-Nov-16 12:30N 37°43' W 000°23'611.5
2017-Nov-16 11:59N 37°38' W 000°27'611.7
2017-Nov-16 11:30N 37°33' W 000°32'911.7
2017-Nov-16 10:44N 37°27' W 000°40'311.7
2017-Nov-16 10:30N 37°25' W 000°42'611.7
2017-Nov-16 10:00N 37°21' W 000°48'611.9
2017-Nov-16 09:29N 37°17' W 000°54'611.6
2017-Nov-16 09:00N 37°13' W 000°59'21812.0
2017-Nov-15 14:51N 35°60' W 005°14'412.4
2017-Nov-15 14:30N 35°59' W 005°19'612.3
2017-Nov-15 14:00N 35°57' W 005°26'204 8.6
2017-Nov-14 14:19N 37°40' W 009°06'412.2
2017-Nov-14 14:00N 37°43' W 009°03'612.3
2017-Nov-14 13:30N 37°48' W 008°59'612.3
2017-Nov-14 13:00N 37°54' W 008°55'4 7.2
2017-Nov-14 12:29N 37°57' W 008°53'0 0.0
2017-Nov-14 11:59N 37°57' W 008°53'0 0.0
2017-Nov-14 11:29N 37°57' W 008°53'0 0.0
2017-Nov-14 10:59N 37°57' W 008°53'0 0.0
2017-Nov-14 10:29N 37°57' W 008°53'0 0.0
2017-Nov-14 09:59N 37°57' W 008°53'0 0.0
2017-Nov-14 09:29N 37°57' W 008°53'0 0.0
2017-Nov-14 08:59N 37°57' W 008°53'0 0.0
2017-Nov-14 08:29N 37°57' W 008°53'0 0.0
2017-Nov-14 07:59N 37°57' W 008°53'0 0.0
2017-Nov-14 07:29N 37°57' W 008°53'0 0.0
2017-Nov-14 06:59N 37°57' W 008°53'0 0.0
2017-Nov-14 06:29N 37°57' W 008°53'0 0.0
2017-Nov-14 05:59N 37°57' W 008°53'0 0.0
2017-Nov-14 05:29N 37°57' W 008°53'0 0.0
2017-Nov-14 04:59N 37°57' W 008°53'0 0.0
2017-Nov-14 04:29N 37°57' W 008°53'0 0.0
2017-Nov-14 03:59N 37°57' W 008°53'0 0.0
2017-Nov-14 03:29N 37°57' W 008°53'0 0.0
2017-Nov-14 02:59N 37°57' W 008°53'0 0.0
2017-Nov-14 02:29N 37°57' W 008°53'0 0.0
2017-Nov-14 01:59N 37°57' W 008°53'0 0.0
2017-Nov-14 01:29N 37°57' W 008°53'0 0.0
2017-Nov-14 00:59N 37°57' W 008°53'0 0.0
2017-Nov-14 00:29N 37°57' W 008°53'0 0.0
2017-Nov-13 23:59N 37°57' W 008°53'0 0.0
2017-Nov-13 23:29N 37°57' W 008°53'0 0.0
2017-Nov-13 22:59N 37°57' W 008°53'0 0.0
2017-Nov-13 22:29N 37°57' W 008°53'0 0.0
2017-Nov-13 21:59N 37°57' W 008°53'105 5.3
2017-Nov-13 02:00N 36°24' W 007°50'11111.5
2017-Nov-12 16:23N 35°58' W 005°37'5 9.5
2017-Nov-12 15:53N 35°59' W 005°31'3 8.6
2017-Nov-12 15:30N 35°59' W 005°27'4 7.9
2017-Nov-12 15:00N 36°00' W 005°23'4 7.7
2017-Nov-12 14:30N 36°01' W 005°18'4 7.9
2017-Nov-12 14:01N 36°03' W 005°13'22111.0
2017-Nov-11 17:57N 37°20' W 000°55'611.7
2017-Nov-11 17:28N 37°24' W 000°49'511.6
2017-Nov-11 17:00N 37°27' W 000°44'711.3
2017-Nov-11 16:25N 37°32' W 000°38'511.1
2017-Nov-11 16:00N 37°35' W 000°34'611.2
2017-Nov-11 15:31N 37°40' W 000°30'611.2
2017-Nov-11 15:00N 37°44' W 000°26'41811.9
2017-Nov-10 03:51N 43°22' E 004°58'2 6.5
2017-Nov-10 03:30N 43°24' E 004°59'0 0.3
2017-Nov-10 02:56N 43°24' E 004°60'0 0.0
2017-Nov-10 02:26N 43°24' E 004°60'0 0.0
2017-Nov-10 01:59N 43°24' E 004°60'0 0.0
2017-Nov-10 01:23N 43°24' E 004°60'0 0.0
2017-Nov-10 00:56N 43°24' E 004°60'0 0.0
2017-Nov-10 00:20N 43°24' E 004°60'0 0.0
2017-Nov-09 23:59N 43°24' E 004°60'0 0.0
2017-Nov-09 23:29N 43°24' E 004°60'0 0.0
2017-Nov-09 22:59N 43°24' E 004°60'0 0.0
2017-Nov-09 22:29N 43°24' E 004°60'0 0.0
2017-Nov-09 21:59N 43°24' E 004°60'0 0.0
2017-Nov-09 21:29N 43°24' E 004°59'0 0.0
2017-Nov-09 20:50N 43°24' E 004°60'0 0.0
2017-Nov-09 20:29N 43°24' E 004°60'0 0.0
2017-Nov-09 19:59N 43°24' E 004°60'0 0.0
2017-Nov-09 19:29N 43°24' E 004°60'0 0.0
2017-Nov-09 18:56N 43°24' E 004°60'0 0.0
2017-Nov-09 18:29N 43°24' E 004°60'0 0.0
2017-Nov-09 17:59N 43°24' E 004°60'0 0.0
2017-Nov-09 17:29N 43°24' E 004°60'0 0.0
2017-Nov-09 16:59N 43°24' E 004°60'0 0.0
2017-Nov-09 16:29N 43°24' E 004°60'0 0.0
2017-Nov-09 15:59N 43°24' E 004°60'0 0.0
2017-Nov-09 15:26N 43°24' E 004°60'0 0.0
2017-Nov-09 14:59N 43°24' E 004°60'0 0.0
2017-Nov-09 14:29N 43°24' E 004°60'0 0.0
2017-Nov-09 13:56N 43°24' E 004°60'0 0.0
2017-Nov-09 13:29N 43°24' E 004°60'0 0.0
2017-Nov-09 12:59N 43°24' E 004°60'0 0.0
2017-Nov-09 12:29N 43°24' E 004°60'0 0.0
2017-Nov-09 11:59N 43°24' E 004°60'0 0.0
2017-Nov-09 11:29N 43°24' E 004°60'0 0.0
2017-Nov-09 10:59N 43°24' E 004°60'0 0.0
2017-Nov-09 10:29N 43°24' E 004°60'0 0.0
2017-Nov-09 09:56N 43°24' E 004°60'0 0.0
2017-Nov-09 09:29N 43°24' E 004°60'0 0.0
2017-Nov-09 08:59N 43°24' E 004°60'0 0.0
2017-Nov-09 08:29N 43°24' E 004°60'0 0.0
2017-Nov-09 07:59N 43°24' E 004°60'0 0.0
2017-Nov-09 07:29N 43°24' E 004°60'0 0.0
2017-Nov-09 06:53N 43°24' E 004°60'0 0.0
2017-Nov-09 06:26N 43°24' E 004°60'0 0.0
2017-Nov-09 05:59N 43°24' E 004°60'0 0.0
2017-Nov-09 05:29N 43°24' E 004°60'0 0.0
2017-Nov-09 04:59N 43°24' E 004°60'0 0.0
2017-Nov-09 04:29N 43°24' E 004°60'0 0.0
2017-Nov-09 03:59N 43°24' E 004°60'0 0.0
2017-Nov-09 03:29N 43°24' E 004°60'0 0.0
2017-Nov-09 02:59N 43°24' E 004°60'0 0.0
2017-Nov-09 02:29N 43°24' E 004°60'0 0.0
2017-Nov-09 01:59N 43°24' E 004°60'0 0.0
2017-Nov-09 01:29N 43°24' E 004°60'0 0.0
2017-Nov-09 00:59N 43°24' E 004°60'0 0.0
2017-Nov-09 00:26N 43°24' E 004°60'0 0.0
2017-Nov-08 23:59N 43°24' E 004°60'0 0.0
2017-Nov-08 23:26N 43°24' E 004°60'0 0.0
2017-Nov-08 22:59N 43°24' E 004°60'0 0.0
2017-Nov-08 22:29N 43°24' E 004°60'0 0.0
2017-Nov-08 21:56N 43°24' E 004°60'0 0.0
2017-Nov-08 21:29N 43°24' E 004°60'0 0.0
2017-Nov-08 20:59N 43°24' E 004°60'0 0.0
2017-Nov-08 20:29N 43°24' E 004°60'0 0.0
2017-Nov-08 19:59N 43°24' E 004°60'0 0.0
2017-Nov-08 19:29N 43°24' E 004°60'0 0.0
2017-Nov-08 18:59N 43°24' E 004°60'0 0.0
2017-Nov-08 18:29N 43°24' E 004°60'0 0.0
2017-Nov-08 17:59N 43°24' E 004°60'0 0.0
2017-Nov-08 17:29N 43°24' E 004°60'0 0.0
2017-Nov-08 16:59N 43°24' E 004°60'0 0.0
2017-Nov-08 16:29N 43°24' E 004°60'0 0.0
2017-Nov-08 15:59N 43°24' E 004°60'0 0.0
2017-Nov-08 15:30N 43°24' E 004°60'0 0.2
2017-Nov-08 15:00N 43°24' E 004°59'3 5.1
2017-Nov-08 14:30N 43°24' E 004°56'0 0.0
2017-Nov-06 22:51N 43°25' E 004°56'2 4.6
2017-Nov-06 22:30N 43°23' E 004°57'3 6.8
2017-Nov-06 22:01N 43°20' E 004°59'  
Track history (hours):
 
Tides and Currents Weather Stations Pressure Air Temp Water Temp Dewpoint Dewpoint Depression Visibility Wind Speed Wind Dir Waves Ship Positions

Coral Pearl

Last reported at 2017-Nov-16 12:43 UTC. Time now 2017-Nov-19 07:07 UTC.
Position N 37°45' W 000°21'.

Length 115 m; draft 7.5 m.

Type: Ship. MMSI: 244870430.

Date/timePositionNaut miles runAvg speedWind from/ knotsBaromVisibWave heightAir tempDewpointWater temp
2017-Nov-16 12:43N 37°45' W 000°21'211.5
2017-Nov-16 12:30N 37°43' W 000°23'611.5
2017-Nov-16 11:59N 37°38' W 000°27'611.7
2017-Nov-16 11:30N 37°33' W 000°32'911.7
2017-Nov-16 10:44N 37°27' W 000°40'311.7
2017-Nov-16 10:30N 37°25' W 000°42'611.7
2017-Nov-16 10:00N 37°21' W 000°48'611.9
2017-Nov-16 09:29N 37°17' W 000°54'611.6
2017-Nov-16 09:00N 37°13' W 000°59'21812.0
2017-Nov-15 14:51N 35°60' W 005°14'412.4
2017-Nov-15 14:30N 35°59' W 005°19'612.3
2017-Nov-15 14:00N 35°57' W 005°26'204 8.6
2017-Nov-14 14:19N 37°40' W 009°06'412.2
2017-Nov-14 14:00N 37°43' W 009°03'612.3
2017-Nov-14 13:30N 37°48' W 008°59'612.3
2017-Nov-14 13:00N 37°54' W 008°55'4 7.2
2017-Nov-14 12:29N 37°57' W 008°53'0 0.0
2017-Nov-14 11:59N 37°57' W 008°53'0 0.0
2017-Nov-14 11:29N 37°57' W 008°53'0 0.0
2017-Nov-14 10:59N 37°57' W 008°53'0 0.0
2017-Nov-14 10:29N 37°57' W 008°53'0 0.0
2017-Nov-14 09:59N 37°57' W 008°53'0 0.0
2017-Nov-14 09:29N 37°57' W 008°53'0 0.0
2017-Nov-14 08:59N 37°57' W 008°53'0 0.0
2017-Nov-14 08:29N 37°57' W 008°53'0 0.0
2017-Nov-14 07:59N 37°57' W 008°53'0 0.0
2017-Nov-14 07:29N 37°57' W 008°53'0 0.0
2017-Nov-14 06:59N 37°57' W 008°53'0 0.0
2017-Nov-14 06:29N 37°57' W 008°53'0 0.0
2017-Nov-14 05:59N 37°57' W 008°53'0 0.0
2017-Nov-14 05:29N 37°57' W 008°53'0 0.0
2017-Nov-14 04:59N 37°57' W 008°53'0 0.0
2017-Nov-14 04:29N 37°57' W 008°53'0 0.0
2017-Nov-14 03:59N 37°57' W 008°53'0 0.0
2017-Nov-14 03:29N 37°57' W 008°53'0 0.0
2017-Nov-14 02:59N 37°57' W 008°53'0 0.0
2017-Nov-14 02:29N 37°57' W 008°53'0 0.0
2017-Nov-14 01:59N 37°57' W 008°53'0 0.0
2017-Nov-14 01:29N 37°57' W 008°53'0 0.0
2017-Nov-14 00:59N 37°57' W 008°53'0 0.0
2017-Nov-14 00:29N 37°57' W 008°53'0 0.0
2017-Nov-13 23:59N 37°57' W 008°53'0 0.0
2017-Nov-13 23:29N 37°57' W 008°53'0 0.0
2017-Nov-13 22:59N 37°57' W 008°53'0 0.0
2017-Nov-13 22:29N 37°57' W 008°53'0 0.0
2017-Nov-13 21:59N 37°57' W 008°53'105 5.3
2017-Nov-13 02:00N 36°24' W 007°50'11111.5
2017-Nov-12 16:23N 35°58' W 005°37'5 9.5
2017-Nov-12 15:53N 35°59' W 005°31'3 8.6
2017-Nov-12 15:30N 35°59' W 005°27'4 7.9
2017-Nov-12 15:00N 36°00' W 005°23'4 7.7
2017-Nov-12 14:30N 36°01' W 005°18'4 7.9
2017-Nov-12 14:01N 36°03' W 005°13'22111.0
2017-Nov-11 17:57N 37°20' W 000°55'611.7
2017-Nov-11 17:28N 37°24' W 000°49'511.6
2017-Nov-11 17:00N 37°27' W 000°44'711.3
2017-Nov-11 16:25N 37°32' W 000°38'511.1
2017-Nov-11 16:00N 37°35' W 000°34'611.2
2017-Nov-11 15:31N 37°40' W 000°30'611.2
2017-Nov-11 15:00N 37°44' W 000°26'41811.9
2017-Nov-10 03:51N 43°22' E 004°58'2 6.5
2017-Nov-10 03:30N 43°24' E 004°59'0 0.3
2017-Nov-10 02:56N 43°24' E 004°60'0 0.0
2017-Nov-10 02:26N 43°24' E 004°60'0 0.0
2017-Nov-10 01:59N 43°24' E 004°60'0 0.0
2017-Nov-10 01:23N 43°24' E 004°60'0 0.0
2017-Nov-10 00:56N 43°24' E 004°60'0 0.0
2017-Nov-10 00:20N 43°24' E 004°60'0 0.0
2017-Nov-09 23:59N 43°24' E 004°60'0 0.0
2017-Nov-09 23:29N 43°24' E 004°60'0 0.0
2017-Nov-09 22:59N 43°24' E 004°60'0 0.0
2017-Nov-09 22:29N 43°24' E 004°60'0 0.0
2017-Nov-09 21:59N 43°24' E 004°60'0 0.0
2017-Nov-09 21:29N 43°24' E 004°59'0 0.0
2017-Nov-09 20:50N 43°24' E 004°60'0 0.0
2017-Nov-09 20:29N 43°24' E 004°60'0 0.0
2017-Nov-09 19:59N 43°24' E 004°60'0 0.0
2017-Nov-09 19:29N 43°24' E 004°60'0 0.0
2017-Nov-09 18:56N 43°24' E 004°60'0 0.0
2017-Nov-09 18:29N 43°24' E 004°60'0 0.0
2017-Nov-09 17:59N 43°24' E 004°60'0 0.0
2017-Nov-09 17:29N 43°24' E 004°60'0 0.0
2017-Nov-09 16:59N 43°24' E 004°60'0 0.0
2017-Nov-09 16:29N 43°24' E 004°60'0 0.0
2017-Nov-09 15:59N 43°24' E 004°60'0 0.0
2017-Nov-09 15:26N 43°24' E 004°60'0 0.0
2017-Nov-09 14:59N 43°24' E 004°60'0 0.0
2017-Nov-09 14:29N 43°24' E 004°60'0 0.0
2017-Nov-09 13:56N 43°24' E 004°60'0 0.0
2017-Nov-09 13:29N 43°24' E 004°60'0 0.0
2017-Nov-09 12:59N 43°24' E 004°60'0 0.0
2017-Nov-09 12:29N 43°24' E 004°60'0 0.0
2017-Nov-09 11:59N 43°24' E 004°60'0 0.0
2017-Nov-09 11:29N 43°24' E 004°60'0 0.0
2017-Nov-09 10:59N 43°24' E 004°60'0 0.0
2017-Nov-09 10:29N 43°24' E 004°60'0 0.0
2017-Nov-09 09:56N 43°24' E 004°60'0 0.0
2017-Nov-09 09:29N 43°24' E 004°60'0 0.0
2017-Nov-09 08:59N 43°24' E 004°60'0 0.0
2017-Nov-09 08:29N 43°24' E 004°60'0 0.0
2017-Nov-09 07:59N 43°24' E 004°60'0 0.0
2017-Nov-09 07:29N 43°24' E 004°60'0 0.0
2017-Nov-09 06:53N 43°24' E 004°60'0 0.0
2017-Nov-09 06:26N 43°24' E 004°60'0 0.0
2017-Nov-09 05:59N 43°24' E 004°60'0 0.0
2017-Nov-09 05:29N 43°24' E 004°60'0 0.0
2017-Nov-09 04:59N 43°24' E 004°60'0 0.0
2017-Nov-09 04:29N 43°24' E 004°60'0 0.0
2017-Nov-09 03:59N 43°24' E 004°60'0 0.0
2017-Nov-09 03:29N 43°24' E 004°60'0 0.0
2017-Nov-09 02:59N 43°24' E 004°60'0 0.0
2017-Nov-09 02:29N 43°24' E 004°60'0 0.0
2017-Nov-09 01:59N 43°24' E 004°60'0 0.0
2017-Nov-09 01:29N 43°24' E 004°60'0 0.0
2017-Nov-09 00:59N 43°24' E 004°60'0 0.0
2017-Nov-09 00:26N 43°24' E 004°60'0 0.0
2017-Nov-08 23:59N 43°24' E 004°60'0 0.0
2017-Nov-08 23:26N 43°24' E 004°60'0 0.0
2017-Nov-08 22:59N 43°24' E 004°60'0 0.0
2017-Nov-08 22:29N 43°24' E 004°60'0 0.0
2017-Nov-08 21:56N 43°24' E 004°60'0 0.0
2017-Nov-08 21:29N 43°24' E 004°60'0 0.0
2017-Nov-08 20:59N 43°24' E 004°60'0 0.0
2017-Nov-08 20:29N 43°24' E 004°60'0 0.0
2017-Nov-08 19:59N 43°24' E 004°60'0 0.0
2017-Nov-08 19:29N 43°24' E 004°60'0 0.0
2017-Nov-08 18:59N 43°24' E 004°60'0 0.0
2017-Nov-08 18:29N 43°24' E 004°60'0 0.0
2017-Nov-08 17:59N 43°24' E 004°60'0 0.0
2017-Nov-08 17:29N 43°24' E 004°60'0 0.0
2017-Nov-08 16:59N 43°24' E 004°60'0 0.0
2017-Nov-08 16:29N 43°24' E 004°60'0 0.0
2017-Nov-08 15:59N 43°24' E 004°60'0 0.0
2017-Nov-08 15:30N 43°24' E 004°60'0 0.2
2017-Nov-08 15:00N 43°24' E 004°59'3 5.1
2017-Nov-08 14:30N 43°24' E 004°56'0 0.0
2017-Nov-06 22:51N 43°25' E 004°56'2 4.6
2017-Nov-06 22:30N 43°23' E 004°57'3 6.8
2017-Nov-06 22:01N 43°20' E 004°59'  

Dump ship's entire track history